UAL1157 PHNL-KLAX
Flight info
| Callsign | UAL1157 |
|---|---|
| Flight time | N/A |
| Altitude | 37000 |
| Route | MKK5 KOLEA CLUTS R465 CIVIT R585 GITLE ADUMM GALIP R585 AUDIA SNAXX RYDRR2 |
| Aircraft | B772/H-SDE2E3FGHIJ5LORVWXY/LB1D1 |
Departure
| Time | N/A |
|---|---|
| Airport | Daniel K. Inouye International Airport (PHNL) |
Arrival
| Time | 2026-04-21 00:09 |
|---|---|
| Airport | Los Angeles International Airport (KLAX) |
| Time | Latitude | Longitude | Altitude | Speed | Heading |
|---|---|---|---|---|---|
| 2026-04-20 22:07 | 31.22859 | -136.25426 | 37073 ft | 531 kts | 66° |
| 2026-04-20 22:08 | 31.25228 | -136.17242 | 37082 ft | 532 kts | 66° |
| 2026-04-20 22:08 | 31.27593 | -136.09051 | 37072 ft | 532 kts | 66° |
| 2026-04-20 22:09 | 31.29952 | -136.00855 | 37066 ft | 532 kts | 66° |
| 2026-04-20 22:09 | 31.32285 | -135.92732 | 37092 ft | 532 kts | 66° |
| 2026-04-20 22:10 | 31.34621 | -135.84576 | 37070 ft | 532 kts | 66° |
| 2026-04-20 22:10 | 31.36967 | -135.76359 | 37054 ft | 532 kts | 67° |
| 2026-04-20 22:11 | 31.39307 | -135.68145 | 37064 ft | 532 kts | 67° |
| 2026-04-20 22:11 | 31.41643 | -135.59919 | 37064 ft | 533 kts | 67° |
| 2026-04-20 22:12 | 31.43976 | -135.51683 | 37053 ft | 533 kts | 67° |
| 2026-04-20 22:12 | 31.46304 | -135.43442 | 37051 ft | 533 kts | 67° |
| 2026-04-20 22:13 | 31.48630 | -135.35186 | 37062 ft | 533 kts | 67° |
| 2026-04-20 22:13 | 31.50950 | -135.26928 | 37046 ft | 534 kts | 67° |
| 2026-04-20 22:14 | 31.53251 | -135.18713 | 37034 ft | 534 kts | 67° |
| 2026-04-20 22:14 | 31.55562 | -135.10440 | 37083 ft | 534 kts | 67° |
| 2026-04-20 22:15 | 31.57874 | -135.02141 | 37045 ft | 535 kts | 67° |
| 2026-04-20 22:15 | 31.60156 | -134.93928 | 37044 ft | 536 kts | 67° |
| 2026-04-20 22:16 | 31.62449 | -134.85650 | 37048 ft | 536 kts | 67° |
| 2026-04-20 22:16 | 31.64752 | -134.77311 | 37043 ft | 536 kts | 67° |
| 2026-04-20 22:17 | 31.67048 | -134.68974 | 37034 ft | 537 kts | 67° |
| 2026-04-20 22:17 | 31.69343 | -134.60618 | 37060 ft | 537 kts | 67° |
| 2026-04-20 22:18 | 31.71634 | -134.52256 | 37032 ft | 538 kts | 68° |
| 2026-04-20 22:18 | 31.73920 | -134.43884 | 37009 ft | 538 kts | 68° |
| 2026-04-20 22:19 | 31.76189 | -134.35548 | 37031 ft | 538 kts | 68° |
| 2026-04-20 22:19 | 31.78466 | -134.27163 | 37021 ft | 538 kts | 68° |
| 2026-04-20 22:20 | 31.80736 | -134.18780 | 37025 ft | 538 kts | 68° |
| 2026-04-20 22:20 | 31.83003 | -134.10383 | 37022 ft | 539 kts | 68° |
| 2026-04-20 22:21 | 31.85253 | -134.02022 | 37045 ft | 540 kts | 68° |
| 2026-04-20 22:21 | 31.87497 | -133.93662 | 37023 ft | 542 kts | 68° |
| 2026-04-20 22:22 | 31.89762 | -133.85198 | 37015 ft | 543 kts | 68° |
| 2026-04-20 22:22 | 31.92026 | -133.76710 | 37011 ft | 544 kts | 68° |
| 2026-04-20 22:23 | 31.94293 | -133.68186 | 37011 ft | 545 kts | 68° |
| 2026-04-20 22:23 | 31.96553 | -133.59663 | 37016 ft | 546 kts | 68° |
| 2026-04-20 22:24 | 31.98812 | -133.51120 | 37008 ft | 547 kts | 68° |
| 2026-04-20 22:24 | 32.01048 | -133.42632 | 37031 ft | 547 kts | 68° |
| 2026-04-20 22:25 | 32.03304 | -133.34052 | 37005 ft | 548 kts | 68° |
| 2026-04-20 22:25 | 32.05560 | -133.25437 | 36995 ft | 549 kts | 68° |
| 2026-04-20 22:26 | 32.07811 | -133.16820 | 36999 ft | 550 kts | 69° |
| 2026-04-20 22:26 | 32.10057 | -133.08190 | 36994 ft | 550 kts | 69° |
| 2026-04-20 22:27 | 32.13393 | -132.95325 | 36999 ft | 551 kts | 69° |
| 2026-04-20 22:27 | 32.15619 | -132.86721 | 36993 ft | 551 kts | 68° |
| 2026-04-20 22:28 | 32.18453 | -132.78396 | 36985 ft | 542 kts | 56° |
| 2026-04-20 22:28 | 32.21983 | -132.70539 | 36996 ft | 541 kts | 55° |
| 2026-04-20 22:29 | 32.25547 | -132.62688 | 36985 ft | 542 kts | 56° |
| 2026-04-20 22:29 | 32.29052 | -132.54838 | 36981 ft | 544 kts | 56° |
| 2026-04-20 22:30 | 32.32552 | -132.46905 | 36989 ft | 544 kts | 56° |
| 2026-04-20 22:30 | 32.36049 | -132.38942 | 37002 ft | 545 kts | 56° |
| 2026-04-20 22:31 | 32.39545 | -132.30974 | 36977 ft | 546 kts | 56° |
| 2026-04-20 22:31 | 32.43047 | -132.22983 | 36973 ft | 547 kts | 56° |
| 2026-04-20 22:32 | 32.46526 | -132.15026 | 36979 ft | 547 kts | 56° |
| 2026-04-20 22:32 | 32.50021 | -132.07018 | 36972 ft | 548 kts | 56° |
| 2026-04-20 22:33 | 32.53475 | -131.99081 | 36965 ft | 547 kts | 56° |
| 2026-04-20 22:33 | 32.56963 | -131.91052 | 36965 ft | 548 kts | 56° |
| 2026-04-20 22:34 | 32.60446 | -131.83013 | 36964 ft | 548 kts | 56° |
| 2026-04-20 22:34 | 32.63926 | -131.74965 | 36980 ft | 548 kts | 57° |
| 2026-04-20 22:35 | 32.67406 | -131.66901 | 36958 ft | 549 kts | 57° |
| 2026-04-20 22:35 | 32.70867 | -131.58859 | 36953 ft | 549 kts | 57° |
| 2026-04-20 22:36 | 32.74343 | -131.50765 | 36953 ft | 550 kts | 57° |
| 2026-04-20 22:36 | 32.77814 | -131.42666 | 36951 ft | 550 kts | 57° |
| 2026-04-20 22:37 | 32.81279 | -131.34561 | 36976 ft | 550 kts | 57° |
| 2026-04-20 22:37 | 32.84750 | -131.26424 | 36954 ft | 552 kts | 57° |
| 2026-04-20 22:38 | 32.88201 | -131.18314 | 36947 ft | 552 kts | 57° |
| 2026-04-20 22:38 | 32.91103 | -131.11480 | 36956 ft | 553 kts | 57° |
| 2026-04-20 22:39 | 32.94550 | -131.03348 | 36942 ft | 553 kts | 57° |
| 2026-04-20 22:39 | 32.97971 | -130.95253 | 36940 ft | 554 kts | 58° |
| 2026-04-20 22:40 | 33.01426 | -130.87064 | 36950 ft | 554 kts | 58° |
| 2026-04-20 22:40 | 33.04885 | -130.78844 | 36942 ft | 555 kts | 58° |
| 2026-04-20 22:41 | 33.08339 | -130.70615 | 36937 ft | 555 kts | 58° |
| 2026-04-20 22:41 | 33.11789 | -130.62378 | 36937 ft | 555 kts | 58° |
| 2026-04-20 22:42 | 33.15217 | -130.54175 | 36936 ft | 554 kts | 58° |
| 2026-04-20 22:42 | 33.18655 | -130.45930 | 36956 ft | 554 kts | 59° |
| 2026-04-20 22:43 | 33.22089 | -130.37676 | 36936 ft | 555 kts | 59° |
| 2026-04-20 22:43 | 33.25516 | -130.29413 | 36932 ft | 555 kts | 59° |
| 2026-04-20 22:44 | 33.28941 | -130.21138 | 36944 ft | 555 kts | 59° |
| 2026-04-20 22:44 | 33.32367 | -130.12839 | 36930 ft | 555 kts | 59° |
| 2026-04-20 22:45 | 33.35763 | -130.04595 | 36933 ft | 555 kts | 59° |
| 2026-04-20 22:45 | 33.39132 | -129.96398 | 36933 ft | 556 kts | 60° |
| 2026-04-20 22:46 | 33.42537 | -129.88094 | 36929 ft | 556 kts | 60° |
| 2026-04-20 22:46 | 33.45939 | -129.79776 | 36941 ft | 556 kts | 60° |
| 2026-04-20 22:47 | 33.49339 | -129.71448 | 36927 ft | 556 kts | 60° |
| 2026-04-20 22:47 | 33.52703 | -129.63178 | 36931 ft | 556 kts | 61° |
| 2026-04-20 22:48 | 33.56088 | -129.54842 | 36943 ft | 556 kts | 61° |
| 2026-04-20 22:48 | 33.59467 | -129.46498 | 36926 ft | 556 kts | 61° |
| 2026-04-20 22:49 | 33.62839 | -129.38154 | 36926 ft | 555 kts | 61° |
| 2026-04-20 22:49 | 33.66206 | -129.29804 | 36933 ft | 555 kts | 62° |
| 2026-04-20 22:50 | 33.69567 | -129.21444 | 36927 ft | 555 kts | 62° |
| 2026-04-20 22:50 | 33.72922 | -129.13076 | 36929 ft | 555 kts | 62° |
| 2026-04-20 22:51 | 33.76249 | -129.04764 | 36927 ft | 555 kts | 62° |
| 2026-04-20 22:51 | 33.79554 | -128.96478 | 36926 ft | 555 kts | 63° |
| 2026-04-20 22:52 | 33.82889 | -128.88104 | 36930 ft | 555 kts | 63° |
| 2026-04-20 22:52 | 33.85699 | -128.79464 | 36927 ft | 555 kts | 76° |
| 2026-04-20 22:53 | 33.87057 | -128.70341 | 36922 ft | 552 kts | 89° |
| 2026-04-20 22:53 | 33.87306 | -128.61185 | 36934 ft | 550 kts | 92° |
| 2026-04-20 22:54 | 33.87456 | -128.51965 | 36925 ft | 550 kts | 92° |
| 2026-04-20 22:54 | 33.87650 | -128.42757 | 36922 ft | 550 kts | 91° |
| 2026-04-20 22:55 | 33.87880 | -128.33553 | 36926 ft | 550 kts | 91° |
| 2026-04-20 22:55 | 33.88114 | -128.24349 | 36926 ft | 550 kts | 91° |
| 2026-04-20 22:56 | 33.88337 | -128.15205 | 36934 ft | 550 kts | 92° |
| 2026-04-20 22:56 | 33.88550 | -128.06012 | 36888 ft | 549 kts | 92° |
| 2026-04-20 22:57 | 33.88753 | -127.96919 | 36930 ft | 550 kts | 92° |
| 2026-04-20 22:57 | 33.88951 | -127.87708 | 36937 ft | 550 kts | 92° |
| 2026-04-20 22:58 | 33.89143 | -127.78489 | 36940 ft | 550 kts | 92° |
| 2026-04-20 22:58 | 33.89328 | -127.69332 | 36944 ft | 550 kts | 92° |
| 2026-04-20 22:59 | 33.89507 | -127.60152 | 36936 ft | 547 kts | 93° |
| 2026-04-20 22:59 | 33.89678 | -127.51006 | 36937 ft | 545 kts | 93° |
| 2026-04-20 23:00 | 33.89840 | -127.41932 | 36905 ft | 544 kts | 93° |
| 2026-04-20 23:00 | 33.89996 | -127.32810 | 36938 ft | 546 kts | 93° |
| 2026-04-20 23:01 | 33.90145 | -127.23667 | 36944 ft | 548 kts | 93° |
| 2026-04-20 23:01 | 33.90289 | -127.14492 | 36938 ft | 548 kts | 93° |
| 2026-04-20 23:02 | 33.90428 | -127.05304 | 36936 ft | 547 kts | 93° |
| 2026-04-20 23:02 | 33.90558 | -126.96248 | 36928 ft | 545 kts | 94° |
| 2026-04-20 23:03 | 33.90681 | -126.87210 | 36931 ft | 542 kts | 94° |
| 2026-04-20 23:03 | 33.90795 | -126.78164 | 36940 ft | 540 kts | 94° |
| 2026-04-20 23:04 | 33.90903 | -126.69118 | 36959 ft | 540 kts | 94° |
| 2026-04-20 23:04 | 33.91005 | -126.60073 | 36939 ft | 540 kts | 94° |
| 2026-04-20 23:05 | 33.91100 | -126.51030 | 36949 ft | 540 kts | 94° |
| 2026-04-20 23:05 | 33.91189 | -126.42064 | 36946 ft | 538 kts | 95° |
| 2026-04-20 23:06 | 33.91271 | -126.33063 | 36946 ft | 537 kts | 95° |
| 2026-04-20 23:06 | 33.91347 | -126.24069 | 36927 ft | 536 kts | 95° |
| 2026-04-20 23:07 | 33.91416 | -126.15121 | 36936 ft | 533 kts | 94° |
| 2026-04-20 23:07 | 33.91477 | -126.06200 | 36953 ft | 533 kts | 94° |
| 2026-04-20 23:08 | 33.91531 | -125.97339 | 36960 ft | 534 kts | 95° |
| 2026-04-20 23:08 | 33.91580 | -125.88385 | 36948 ft | 535 kts | 95° |
| 2026-04-20 23:09 | 33.91623 | -125.79413 | 36951 ft | 536 kts | 95° |
| 2026-04-20 23:09 | 33.91659 | -125.70500 | 36945 ft | 534 kts | 95° |
| 2026-04-20 23:10 | 33.91691 | -125.61517 | 36955 ft | 532 kts | 95° |
| 2026-04-20 23:10 | 33.91714 | -125.52673 | 36943 ft | 529 kts | 95° |
| 2026-04-20 23:11 | 33.91730 | -125.43819 | 36961 ft | 528 kts | 95° |
| 2026-04-20 23:11 | 33.91740 | -125.34966 | 36957 ft | 528 kts | 95° |
| 2026-04-20 23:12 | 33.91744 | -125.26118 | 36962 ft | 528 kts | 95° |
| 2026-04-20 23:12 | 33.91741 | -125.17278 | 36963 ft | 528 kts | 95° |
| 2026-04-20 23:13 | 33.91733 | -125.08490 | 36965 ft | 528 kts | 95° |
| 2026-04-20 23:13 | 33.91719 | -124.99720 | 36964 ft | 528 kts | 95° |
| 2026-04-20 23:14 | 33.91989 | -124.90877 | 36964 ft | 531 kts | 88° |
| 2026-04-20 23:14 | 33.93398 | -124.82124 | 36962 ft | 533 kts | 80° |
| 2026-04-20 23:15 | 33.95115 | -124.73432 | 36955 ft | 532 kts | 80° |
| 2026-04-20 23:15 | 33.96796 | -124.64772 | 36968 ft | 530 kts | 81° |
| 2026-04-20 23:16 | 33.98421 | -124.56127 | 36966 ft | 528 kts | 81° |
| 2026-04-20 23:16 | 34.00012 | -124.47550 | 36954 ft | 527 kts | 81° |
| 2026-04-20 23:17 | 34.01604 | -124.38948 | 36974 ft | 525 kts | 81° |
| 2026-04-20 23:17 | 34.03187 | -124.30371 | 36969 ft | 524 kts | 81° |
| 2026-04-20 23:18 | 34.04754 | -124.21848 | 36975 ft | 523 kts | 81° |
| 2026-04-20 23:18 | 34.06324 | -124.13280 | 36978 ft | 522 kts | 82° |
| 2026-04-20 23:19 | 34.07884 | -124.04730 | 36966 ft | 521 kts | 82° |
| 2026-04-20 23:19 | 34.09417 | -123.96286 | 36975 ft | 520 kts | 82° |
| 2026-04-20 23:20 | 34.10950 | -123.87812 | 36978 ft | 518 kts | 82° |
| 2026-04-20 23:20 | 34.12482 | -123.79310 | 36976 ft | 517 kts | 82° |
| 2026-04-20 23:21 | 34.14001 | -123.70842 | 36978 ft | 516 kts | 82° |
| 2026-04-20 23:21 | 34.15511 | -123.62388 | 36977 ft | 514 kts | 82° |
| 2026-04-20 23:22 | 34.17012 | -123.53952 | 36976 ft | 513 kts | 82° |
| 2026-04-20 23:22 | 34.18502 | -123.45536 | 36978 ft | 512 kts | 82° |
| 2026-04-20 23:23 | 34.19989 | -123.37106 | 36977 ft | 512 kts | 82° |
| 2026-04-20 23:23 | 34.21461 | -123.28724 | 36980 ft | 513 kts | 82° |
| 2026-04-20 23:24 | 34.22936 | -123.20295 | 36974 ft | 513 kts | 82° |
| 2026-04-20 23:24 | 34.24339 | -123.11848 | 36985 ft | 511 kts | 86° |
| 2026-04-20 23:25 | 34.24789 | -123.04775 | 36972 ft | 504 kts | 95° |
| 2026-04-20 23:25 | 34.24441 | -122.96443 | 36979 ft | 501 kts | 98° |
| 2026-04-20 23:26 | 34.24004 | -122.88034 | 36980 ft | 501 kts | 98° |
| 2026-04-20 23:26 | 34.23596 | -122.79637 | 36983 ft | 500 kts | 98° |
| 2026-04-20 23:27 | 34.23209 | -122.71243 | 36988 ft | 500 kts | 98° |
| 2026-04-20 23:27 | 34.22826 | -122.62917 | 36987 ft | 499 kts | 98° |
| 2026-04-20 23:28 | 34.22435 | -122.54554 | 36990 ft | 498 kts | 98° |
| 2026-04-20 23:28 | 34.22037 | -122.46203 | 36980 ft | 497 kts | 98° |
| 2026-04-20 23:29 | 34.21633 | -122.37855 | 36992 ft | 497 kts | 98° |
| 2026-04-20 23:29 | 34.21222 | -122.29492 | 36993 ft | 498 kts | 98° |
| 2026-04-20 23:30 | 34.20808 | -122.21180 | 37000 ft | 499 kts | 98° |
| 2026-04-20 23:30 | 34.20385 | -122.12799 | 37007 ft | 499 kts | 98° |
| 2026-04-20 23:31 | 34.19957 | -122.04413 | 36998 ft | 500 kts | 98° |
| 2026-04-20 23:31 | 34.19527 | -121.96121 | 37010 ft | 500 kts | 98° |
| 2026-04-20 23:32 | 34.19087 | -121.87735 | 37008 ft | 500 kts | 98° |
| 2026-04-20 23:32 | 34.18644 | -121.79414 | 36996 ft | 500 kts | 98° |
| 2026-04-20 23:33 | 34.18193 | -121.71035 | 37015 ft | 500 kts | 98° |
| 2026-04-20 23:33 | 34.17736 | -121.62660 | 37020 ft | 500 kts | 98° |
| 2026-04-20 23:34 | 34.17273 | -121.54271 | 37015 ft | 500 kts | 98° |
| 2026-04-20 23:34 | 34.16805 | -121.45887 | 37012 ft | 500 kts | 99° |
| 2026-04-20 23:35 | 34.16094 | -121.33369 | 37022 ft | 498 kts | 99° |
| 2026-04-20 23:35 | 34.15858 | -121.29220 | 36759 ft | 490 kts | 99° |
| 2026-04-20 23:36 | 34.15623 | -121.25120 | 36031 ft | 491 kts | 99° |
| 2026-04-20 23:36 | 34.15380 | -121.20976 | 35091 ft | 497 kts | 99° |
| 2026-04-20 23:36 | 34.15131 | -121.16786 | 34219 ft | 502 kts | 99° |
| 2026-04-20 23:36 | 34.14884 | -121.12589 | 33509 ft | 500 kts | 99° |
| 2026-04-20 23:37 | 34.14643 | -121.08471 | 33031 ft | 494 kts | 99° |
| 2026-04-20 23:37 | 34.14402 | -121.04359 | 32570 ft | 488 kts | 99° |
| 2026-04-20 23:37 | 34.14159 | -121.00291 | 32065 ft | 483 kts | 99° |
| 2026-04-20 23:37 | 34.13980 | -120.96334 | 31522 ft | 483 kts | 95° |
| 2026-04-20 23:38 | 34.14129 | -120.92259 | 30947 ft | 485 kts | 89° |
| 2026-04-20 23:38 | 34.14488 | -120.88224 | 30426 ft | 483 kts | 87° |
| 2026-04-20 23:38 | 34.14916 | -120.84209 | 29918 ft | 480 kts | 86° |
| 2026-04-20 23:38 | 34.15332 | -120.80235 | 29390 ft | 475 kts | 87° |
| 2026-04-20 23:39 | 34.15707 | -120.76336 | 28898 ft | 470 kts | 88° |
| 2026-04-20 23:39 | 34.16049 | -120.72431 | 28416 ft | 465 kts | 88° |
| 2026-04-20 23:39 | 34.16366 | -120.68560 | 27923 ft | 461 kts | 89° |
| 2026-04-20 23:39 | 34.16668 | -120.64718 | 27437 ft | 458 kts | 89° |
| 2026-04-20 23:40 | 34.16963 | -120.60910 | 26972 ft | 454 kts | 89° |
| 2026-04-20 23:40 | 34.17256 | -120.57119 | 26508 ft | 450 kts | 89° |
| 2026-04-20 23:40 | 34.17548 | -120.53365 | 26059 ft | 447 kts | 89° |
| 2026-04-20 23:40 | 34.17837 | -120.49642 | 25620 ft | 443 kts | 89° |
| 2026-04-20 23:41 | 34.18123 | -120.45954 | 25192 ft | 440 kts | 90° |
| 2026-04-20 23:41 | 34.18406 | -120.42281 | 24761 ft | 437 kts | 90° |
| 2026-04-20 23:41 | 34.18687 | -120.38637 | 24355 ft | 434 kts | 90° |
| 2026-04-20 23:41 | 34.18964 | -120.35033 | 23994 ft | 429 kts | 90° |
| 2026-04-20 23:42 | 34.19237 | -120.31453 | 23618 ft | 426 kts | 90° |
| 2026-04-20 23:42 | 34.19431 | -120.27891 | 23126 ft | 422 kts | 93° |
| 2026-04-20 23:42 | 34.19551 | -120.24371 | 22644 ft | 419 kts | 93° |
| 2026-04-20 23:42 | 34.19654 | -120.20909 | 22206 ft | 416 kts | 93° |
| 2026-04-20 23:43 | 34.19765 | -120.17424 | 21748 ft | 414 kts | 93° |
| 2026-04-20 23:43 | 34.19887 | -120.13955 | 21312 ft | 412 kts | 93° |
| 2026-04-20 23:43 | 34.20016 | -120.10504 | 20881 ft | 410 kts | 92° |
| 2026-04-20 23:43 | 34.20144 | -120.07079 | 20481 ft | 407 kts | 93° |
| 2026-04-20 23:44 | 34.20206 | -120.03685 | 20126 ft | 402 kts | 96° |
| 2026-04-20 23:44 | 34.20175 | -120.00322 | 19759 ft | 398 kts | 97° |
| 2026-04-20 23:44 | 34.20112 | -119.97059 | 19389 ft | 396 kts | 97° |
| 2026-04-20 23:44 | 34.20043 | -119.93739 | 19005 ft | 394 kts | 97° |
| 2026-04-20 23:45 | 34.19980 | -119.90435 | 18660 ft | 392 kts | 97° |
| 2026-04-20 23:45 | 34.19925 | -119.87150 | 18382 ft | 390 kts | 97° |
| 2026-04-20 23:45 | 34.19873 | -119.83868 | 18074 ft | 389 kts | 97° |
| 2026-04-20 23:45 | 34.19824 | -119.80607 | 17766 ft | 388 kts | 96° |
| 2026-04-20 23:46 | 34.19778 | -119.77398 | 17492 ft | 386 kts | 96° |
| 2026-04-20 23:46 | 34.19731 | -119.74150 | 17221 ft | 384 kts | 96° |
| 2026-04-20 23:46 | 34.19684 | -119.70926 | 16951 ft | 382 kts | 96° |
| 2026-04-20 23:46 | 34.19636 | -119.67722 | 16683 ft | 380 kts | 96° |
| 2026-04-20 23:47 | 34.19588 | -119.64524 | 16414 ft | 379 kts | 96° |
| 2026-04-20 23:47 | 34.19539 | -119.61390 | 16152 ft | 377 kts | 96° |
| 2026-04-20 23:47 | 34.19489 | -119.58222 | 15888 ft | 376 kts | 96° |
| 2026-04-20 23:47 | 34.19439 | -119.55070 | 15624 ft | 374 kts | 96° |
| 2026-04-20 23:48 | 34.19387 | -119.51934 | 15349 ft | 372 kts | 96° |
| 2026-04-20 23:48 | 34.19336 | -119.48807 | 15093 ft | 370 kts | 96° |
| 2026-04-20 23:48 | 34.19284 | -119.45703 | 14838 ft | 368 kts | 96° |
| 2026-04-20 23:48 | 34.19233 | -119.42626 | 14507 ft | 364 kts | 96° |
| 2026-04-20 23:49 | 34.19181 | -119.39585 | 14157 ft | 360 kts | 96° |
| 2026-04-20 23:49 | 34.19129 | -119.36606 | 13807 ft | 356 kts | 96° |
| 2026-04-20 23:49 | 34.19078 | -119.33635 | 13416 ft | 352 kts | 96° |
| 2026-04-20 23:49 | 34.19031 | -119.30689 | 13020 ft | 348 kts | 95° |
| 2026-04-20 23:50 | 34.18984 | -119.27783 | 12641 ft | 345 kts | 95° |
| 2026-04-20 23:50 | 34.18937 | -119.24900 | 12259 ft | 341 kts | 95° |
| 2026-04-20 23:50 | 34.18889 | -119.22049 | 11877 ft | 337 kts | 95° |
| 2026-04-20 23:50 | 34.18841 | -119.19227 | 11508 ft | 334 kts | 95° |
| 2026-04-20 23:51 | 34.18793 | -119.16438 | 11120 ft | 331 kts | 95° |
| 2026-04-20 23:51 | 34.18745 | -119.13673 | 10739 ft | 328 kts | 95° |
| 2026-04-20 23:51 | 34.18697 | -119.10961 | 10367 ft | 326 kts | 95° |
| 2026-04-20 23:51 | 34.18648 | -119.08229 | 9993 ft | 324 kts | 95° |
| 2026-04-20 23:52 | 34.18384 | -119.05568 | 9576 ft | 316 kts | 111° |
| 2026-04-20 23:52 | 34.17497 | -119.03182 | 9201 ft | 309 kts | 120° |
| 2026-04-20 23:52 | 34.16563 | -119.00886 | 9013 ft | 299 kts | 119° |
| 2026-04-20 23:52 | 34.15685 | -118.98702 | 8866 ft | 291 kts | 119° |
| 2026-04-20 23:53 | 34.14817 | -118.96529 | 8684 ft | 283 kts | 119° |
| 2026-04-20 23:53 | 34.13982 | -118.94415 | 8511 ft | 275 kts | 119° |
| 2026-04-20 23:53 | 34.13169 | -118.92352 | 8343 ft | 269 kts | 119° |
| 2026-04-20 23:53 | 34.12373 | -118.90327 | 8199 ft | 266 kts | 119° |
| 2026-04-20 23:54 | 34.11581 | -118.88310 | 8045 ft | 266 kts | 120° |
| 2026-04-20 23:54 | 34.10787 | -118.86297 | 7900 ft | 265 kts | 119° |
| 2026-04-20 23:54 | 34.10003 | -118.84297 | 7823 ft | 264 kts | 118° |
| 2026-04-20 23:54 | 34.09213 | -118.82287 | 7752 ft | 266 kts | 118° |
| 2026-04-20 23:55 | 34.08419 | -118.80262 | 7714 ft | 267 kts | 118° |
| 2026-04-20 23:55 | 34.07619 | -118.78234 | 7697 ft | 269 kts | 118° |
| 2026-04-20 23:55 | 34.06818 | -118.76189 | 7692 ft | 271 kts | 118° |
| 2026-04-20 23:55 | 34.06011 | -118.74131 | 7622 ft | 273 kts | 118° |
| 2026-04-20 23:56 | 34.05199 | -118.72064 | 7556 ft | 271 kts | 118° |
| 2026-04-20 23:56 | 34.04395 | -118.70018 | 7507 ft | 269 kts | 118° |
| 2026-04-20 23:56 | 34.03601 | -118.67993 | 7414 ft | 266 kts | 118° |
| 2026-04-20 23:56 | 34.02894 | -118.65974 | 7298 ft | 265 kts | 108° |
| 2026-04-20 23:57 | 34.02606 | -118.63773 | 7194 ft | 266 kts | 98° |
| 2026-04-20 23:57 | 34.02445 | -118.61559 | 7065 ft | 264 kts | 98° |
| 2026-04-20 23:57 | 34.02275 | -118.59392 | 6930 ft | 256 kts | 98° |
| 2026-04-20 23:57 | 34.02094 | -118.57298 | 6817 ft | 246 kts | 99° |
| 2026-04-20 23:58 | 34.01913 | -118.55288 | 6732 ft | 236 kts | 99° |
| 2026-04-20 23:58 | 34.01735 | -118.53339 | 6644 ft | 233 kts | 99° |
| 2026-04-20 23:58 | 34.01553 | -118.51396 | 6557 ft | 232 kts | 99° |
| 2026-04-20 23:58 | 34.01370 | -118.49455 | 6394 ft | 235 kts | 99° |
| 2026-04-20 23:59 | 34.01185 | -118.47491 | 6195 ft | 235 kts | 99° |
| 2026-04-20 23:59 | 34.01040 | -118.45547 | 5959 ft | 231 kts | 92° |
| 2026-04-20 23:59 | 34.01280 | -118.43630 | 5747 ft | 232 kts | 79° |
| 2026-04-20 23:59 | 34.01642 | -118.41728 | 5471 ft | 233 kts | 79° |
| 2026-04-21 00:00 | 34.02000 | -118.39812 | 5186 ft | 234 kts | 81° |
| 2026-04-21 00:00 | 34.02342 | -118.37897 | 4890 ft | 233 kts | 80° |
| 2026-04-21 00:00 | 34.02678 | -118.36001 | 4598 ft | 232 kts | 79° |
| 2026-04-21 00:00 | 34.02936 | -118.34093 | 4344 ft | 227 kts | 85° |
| 2026-04-21 00:01 | 34.03119 | -118.32217 | 4133 ft | 223 kts | 84° |
| 2026-04-21 00:01 | 34.03299 | -118.30351 | 3913 ft | 224 kts | 84° |
| 2026-04-21 00:01 | 34.03474 | -118.28486 | 3672 ft | 224 kts | 84° |
| 2026-04-21 00:01 | 34.03636 | -118.26628 | 3581 ft | 221 kts | 85° |
| 2026-04-21 00:02 | 34.03793 | -118.24786 | 3529 ft | 221 kts | 86° |
| 2026-04-21 00:02 | 34.03925 | -118.22930 | 3492 ft | 224 kts | 92° |
| 2026-04-21 00:02 | 34.03518 | -118.21154 | 3488 ft | 220 kts | 119° |
| 2026-04-21 00:02 | 34.02760 | -118.19543 | 3489 ft | 223 kts | 121° |
| 2026-04-21 00:03 | 34.01993 | -118.17938 | 3510 ft | 224 kts | 121° |
| 2026-04-21 00:03 | 34.01160 | -118.16344 | 3480 ft | 225 kts | 132° |
| 2026-04-21 00:03 | 33.99879 | -118.15350 | 3482 ft | 219 kts | 166° |
| 2026-04-21 00:03 | 33.98389 | -118.15392 | 3480 ft | 218 kts | 199° |
| 2026-04-21 00:04 | 33.97164 | -118.16401 | 3331 ft | 214 kts | 230° |
| 2026-04-21 00:04 | 33.96536 | -118.17989 | 3129 ft | 209 kts | 253° |
| 2026-04-21 00:04 | 33.96215 | -118.19664 | 2917 ft | 198 kts | 257° |
| 2026-04-21 00:04 | 33.95949 | -118.21194 | 2629 ft | 179 kts | 257° |
| 2026-04-21 00:05 | 33.95690 | -118.22657 | 2402 ft | 178 kts | 257° |
| 2026-04-21 00:05 | 33.95429 | -118.24108 | 2150 ft | 177 kts | 257° |
| 2026-04-21 00:05 | 33.95166 | -118.25552 | 1905 ft | 175 kts | 257° |
| 2026-04-21 00:05 | 33.94910 | -118.26953 | 1878 ft | 170 kts | 256° |
| 2026-04-21 00:06 | 33.94730 | -118.28334 | 1856 ft | 162 kts | 262° |
| 2026-04-21 00:06 | 33.94607 | -118.29595 | 1796 ft | 144 kts | 262° |
| 2026-04-21 00:06 | 33.94487 | -118.30738 | 1518 ft | 133 kts | 260° |
| 2026-04-21 00:06 | 33.94374 | -118.31785 | 1199 ft | 123 kts | 261° |
| 2026-04-21 00:07 | 33.94262 | -118.32821 | 1049 ft | 124 kts | 261° |
| 2026-04-21 00:07 | 33.94160 | -118.33885 | 847 ft | 132 kts | 263° |
| 2026-04-21 00:07 | 33.94052 | -118.34978 | 672 ft | 127 kts | 264° |
| 2026-04-21 00:07 | 33.93943 | -118.36011 | 507 ft | 125 kts | 266° |
| 2026-04-21 00:08 | 33.93855 | -118.37063 | 366 ft | 129 kts | 266° |
| 2026-04-21 00:08 | 33.93751 | -118.38071 | 177 ft | 111 kts | 264° |
| 2026-04-21 00:08 | 33.93668 | -118.38920 | 98 ft | 95 kts | 263° |
| 2026-04-21 00:08 | 33.93608 | -118.39528 | 102 ft | 53 kts | 263° |
| 2026-04-21 00:09 | 33.93617 | -118.39834 | 100 ft | 30 kts | 283° |
| 2026-04-21 00:09 | 33.93660 | -118.40038 | 100 ft | 25 kts | 271° |
| 2026-04-21 00:09 | 33.93649 | -118.40218 | 103 ft | 19 kts | 264° |
| 2026-04-21 00:09 | 33.93649 | -118.40309 | 102 ft | 0 kts | 279° |
| 2026-04-21 00:10 | 33.93655 | -118.40334 | 102 ft | 8 kts | 288° |
| 2026-04-21 00:10 | 33.93699 | -118.40408 | 102 ft | 13 kts | 327° |
| 2026-04-21 00:10 | 33.93756 | -118.40426 | 103 ft | 11 kts | 349° |
| 2026-04-21 00:10 | 33.93817 | -118.40479 | 102 ft | 12 kts | 297° |
| 2026-04-21 00:11 | 33.93882 | -118.40530 | 100 ft | 9 kts | 355° |
| 2026-04-21 00:11 | 33.93916 | -118.40454 | 98 ft | 11 kts | 82° |
| 2026-04-21 00:11 | 33.93923 | -118.40381 | 98 ft | 15 kts | 83° |
| 2026-04-21 00:11 | 33.93935 | -118.40256 | 99 ft | 12 kts | 83° |
| 2026-04-21 00:12 | 33.93941 | -118.40203 | 101 ft | 5 kts | 82° |
| 2026-04-21 00:12 | 33.93947 | -118.40144 | 98 ft | 10 kts | 83° |
| 2026-04-21 00:12 | 33.93954 | -118.40072 | 100 ft | 7 kts | 83° |
| 2026-04-21 00:12 | 33.93962 | -118.39998 | 101 ft | 11 kts | 83° |
| 2026-04-21 00:13 | 33.93968 | -118.39937 | 101 ft | 3 kts | 82° |
| 2026-04-21 00:13 | 33.93969 | -118.39924 | 100 ft | 4 kts | 82° |
| 2026-04-21 00:13 | 33.93992 | -118.39902 | 100 ft | 5 kts | 6° |
| 2026-04-21 00:13 | 33.94016 | -118.39903 | 99 ft | 3 kts | 355° |
| 2026-04-21 00:14 | 33.94030 | -118.39904 | 99 ft | 0 kts | 354° |